Time;durP1;ratioP1;P1;durP2;ratioP2;P2;SDS_P1;SDS_P2;PMS_P1;PMS_P2;Temp;Humidity;BMP_temperature;BMP_pressure;BME280_temperature;BME280_humidity;BME280_pressure;Samples;Min_cycle;Max_cycle;Signal;HPM_P1;HPM_P2
2023/03/01 00:01:03;;;;;;;0.55;0.55;;;;;;;;;;5038602;28;20223;-72
2023/03/01 00:03:30;;;;;;;0.55;0.55;;;;;;;;;;5037608;28;20225;-73
2023/03/01 00:06:12;;;;;;;;;;;;;;;;;;;;;
2023/03/01 00:08:40;;;;;;;0.43;0.43;;;;;;;;;;5039493;28;20636;-73
2023/03/01 00:11:09;;;;;;;0.20;0.20;;;;;;;;;;5038005;28;20237;-73
2023/03/01 00:13:39;;;;;;;1.05;1.05;;;;;;;;;;5038143;28;20227;-73
2023/03/01 00:16:12;;;;;;;0.20;0.20;;;;;;;;;;5040201;28;20232;-73
2023/03/01 00:18:43;;;;;;;0.47;0.47;;;;;;;;;;5061393;27;20510;-74
2023/03/01 00:21:14;;;;;;;0.35;0.35;;;;;;;;;;5088908;27;20314;-72
2023/03/01 00:23:52;;;;;;;0.90;0.90;;;;;;;;;;5142908;27;20243;-73
2023/03/01 00:26:36;;;;;;;1.05;1.05;;;;;;;;;;5115249;27;20217;-72
2023/03/01 00:29:12;;;;;;;0.63;0.63;;;;;;;;;;5026354;28;20269;-72
2023/03/01 00:31:50;;;;;;;0.20;0.20;;;;;;;;;;5041333;28;20223;-72
2023/03/01 00:34:55;;;;;;;0.57;0.57;;;;;;;;;;5098038;27;20217;-72
2023/03/01 00:37:31;;;;;;;0.30;0.30;;;;;;;;;;5059550;28;20235;-73
2023/03/01 00:39:59;;;;;;;0.45;0.45;;;;;;;;;;5036662;28;20234;-71
2023/03/01 00:42:27;;;;;;;0.65;0.65;;;;;;;;;;5024604;28;20252;-73
2023/03/01 00:44:56;;;;;;;0.65;0.65;;;;;;;;;;5039697;28;20305;-73
2023/03/01 00:47:24;;;;;;;0.60;0.60;;;;;;;;;;5038119;28;20251;-72
2023/03/01 00:49:52;;;;;;;0.43;0.43;;;;;;;;;;5038906;28;20723;-71
2023/03/01 00:52:20;;;;;;;0.55;0.55;;;;;;;;;;5029806;28;20834;-73
2023/03/01 00:54:49;;;;;;;0.73;0.73;;;;;;;;;;5019613;28;20653;-73
2023/03/01 00:57:16;;;;;;;0.57;0.57;;;;;;;;;;5019066;27;20226;-73
2023/03/01 00:59:44;;;;;;;0.98;0.98;;;;;;;;;;5018925;28;20629;-73
2023/03/01 01:02:14;;;;;;;0.75;0.75;;;;;;;;;;5019375;28;20227;-72
2023/03/01 01:04:41;;;;;;;0.35;0.35;;;;;;;;;;5031998;28;20234;-72
2023/03/01 01:07:09;;;;;;;0.85;0.85;;;;;;;;;;5022244;28;20228;-73
2023/03/01 01:09:37;;;;;;;0.20;0.20;;;;;;;;;;5019823;28;20625;-73
2023/03/01 01:12:07;;;;;;;0.57;0.57;;;;;;;;;;5030936;28;20232;-73
2023/03/01 01:14:34;;;;;;;1.00;1.00;;;;;;;;;;5038487;28;20249;-73
2023/03/01 01:17:03;;;;;;;0.00;0.00;;;;;;;;;;5035103;28;20226;-72
2023/03/01 01:19:32;;;;;;;0.22;0.22;;;;;;;;;;5035884;28;20502;-72
2023/03/01 01:22:00;;;;;;;0.65;0.65;;;;;;;;;;5039060;28;20245;-73
2023/03/01 01:24:28;;;;;;;1.02;1.02;;;;;;;;;;5022596;28;20229;-73
2023/03/01 01:26:56;;;;;;;0.55;0.55;;;;;;;;;;5018211;28;20241;-72
2023/03/01 01:29:26;;;;;;;0.43;0.43;;;;;;;;;;5019007;28;20340;-73
2023/03/01 01:31:54;;;;;;;0.57;0.57;;;;;;;;;;5036110;28;20278;-73
2023/03/01 01:34:22;;;;;;;0.32;0.32;;;;;;;;;;5038415;28;20235;-73
2023/03/01 01:36:53;;;;;;;0.85;0.85;;;;;;;;;;5037664;28;20231;-73
2023/03/01 01:39:20;;;;;;;1.20;1.20;;;;;;;;;;5037788;28;20311;-73
2023/03/01 01:41:48;;;;;;;1.50;1.50;;;;;;;;;;5038964;28;20517;-73
2023/03/01 01:44:23;;;;;;;0.57;0.57;;;;;;;;;;5037012;28;20251;-72
2023/03/01 01:46:52;;;;;;;0.40;0.40;;;;;;;;;;5037944;28;20597;-73
2023/03/01 01:49:28;;;;;;;0.65;0.65;;;;;;;;;;5035885;28;20258;-73
2023/03/01 01:52:05;;;;;;;0.52;0.52;;;;;;;;;;5037537;28;20281;-73
2023/03/01 01:54:37;;;;;;;1.20;1.20;;;;;;;;;;5036588;28;20262;-73
2023/03/01 01:57:09;;;;;;;0.43;0.43;;;;;;;;;;5038201;28;20231;-73
2023/03/01 01:59:37;;;;;;;0.55;0.55;;;;;;;;;;5021693;28;20502;-73
2023/03/01 02:02:05;;;;;;;0.60;0.60;;;;;;;;;;5016791;28;20674;-72
2023/03/01 02:05:00;;;;;;;0.45;0.45;;;;;;;;;;5018727;28;20600;-72
2023/03/01 02:07:30;;;;;;;0.65;0.65;;;;;;;;;;5019630;28;20218;-73
2023/03/01 02:09:57;;;;;;;0.30;0.30;;;;;;;;;;5018155;28;20320;-73
2023/03/01 02:12:26;;;;;;;0.22;0.22;;;;;;;;;;5018356;28;20223;-73
2023/03/01 02:14:53;;;;;;;0.32;0.32;;;;;;;;;;5016553;28;20317;-73
2023/03/01 02:17:24;;;;;;;0.20;0.20;;;;;;;;;;5016545;28;20245;-73
2023/03/01 02:20:00;;;;;;;0.40;0.40;;;;;;;;;;5018445;28;20502;-72
2023/03/01 02:22:33;;;;;;;0.40;0.40;;;;;;;;;;5018214;28;20232;-73
2023/03/01 02:25:08;;;;;;;0.57;0.57;;;;;;;;;;5017947;28;20224;-73
2023/03/01 02:27:40;;;;;;;0.10;0.10;;;;;;;;;;5017916;28;20292;-73
2023/03/01 02:30:12;;;;;;;0.30;0.30;;;;;;;;;;5023693;28;20467;-73
2023/03/01 02:32:41;;;;;;;0.52;0.52;;;;;;;;;;5036652;28;20230;-73
2023/03/01 02:35:10;;;;;;;1.00;1.00;;;;;;;;;;5036752;28;20223;-72
2023/03/01 02:37:43;;;;;;;0.15;0.15;;;;;;;;;;5037434;28;20229;-73
2023/03/01 02:40:12;;;;;;;0.20;0.20;;;;;;;;;;5034955;28;20221;-73
2023/03/01 02:42:44;;;;;;;0.55;0.55;;;;;;;;;;5037179;28;20236;-73
2023/03/01 02:45:13;;;;;;;0.10;0.10;;;;;;;;;;5035933;28;20656;-73
2023/03/01 02:47:43;;;;;;;0.40;0.40;;;;;;;;;;5036580;28;20237;-73
2023/03/01 02:50:16;;;;;;;0.70;0.70;;;;;;;;;;5036055;28;20602;-72
2023/03/01 02:52:47;;;;;;;0.68;0.68;;;;;;;;;;5037225;28;20235;-73
2023/03/01 02:55:16;;;;;;;0.55;0.55;;;;;;;;;;5037386;28;20225;-73
2023/03/01 02:57:50;;;;;;;0.45;0.45;;;;;;;;;;5034121;28;20314;-73
2023/03/01 03:00:20;;;;;;;0.50;0.50;;;;;;;;;;5017279;28;20232;-73
2023/03/01 03:02:49;;;;;;;0.43;0.43;;;;;;;;;;5017787;28;20219;-73
2023/03/01 03:05:17;;;;;;;0.93;0.93;;;;;;;;;;5019798;28;20247;-73
2023/03/01 03:07:46;;;;;;;0.50;0.50;;;;;;;;;;5037054;28;20618;-73
2023/03/01 03:10:14;;;;;;;0.55;0.55;;;;;;;;;;5037606;28;20232;-73
2023/03/01 03:12:42;;;;;;;0.28;0.28;;;;;;;;;;5036224;28;20311;-73
2023/03/01 03:15:12;;;;;;;0.82;0.82;;;;;;;;;;5036205;28;20238;-73
2023/03/01 03:17:42;;;;;;;0.30;0.30;;;;;;;;;;5035667;28;20231;-73
2023/03/01 03:20:11;;;;;;;0.30;0.30;;;;;;;;;;5037290;28;20229;-73
2023/03/01 03:22:40;;;;;;;0.47;0.47;;;;;;;;;;5036137;28;20259;-72
2023/03/01 03:25:10;;;;;;;0.43;0.43;;;;;;;;;;5036789;28;20253;-73
2023/03/01 03:27:38;;;;;;;0.38;0.38;;;;;;;;;;5034845;28;20282;-73
2023/03/01 03:30:08;;;;;;;0.55;0.55;;;;;;;;;;5038052;28;20217;-73
2023/03/01 03:32:36;;;;;;;0.50;0.50;;;;;;;;;;5040772;28;20285;-73
2023/03/01 03:35:09;;;;;;;0.55;0.55;;;;;;;;;;5039580;28;20225;-73
2023/03/01 03:40:22;;;;;;;0.55;0.55;;;;;;;;;;5038551;28;20243;-72
2023/03/01 03:42:50;;;;;;;0.52;0.52;;;;;;;;;;5039885;28;20627;-71
2023/03/01 03:45:18;;;;;;;0.90;0.90;;;;;;;;;;5038971;28;20243;-73
2023/03/01 03:47:46;;;;;;;0.43;0.43;;;;;;;;;;5040401;28;20251;-73
2023/03/01 03:50:16;;;;;;;1.23;1.23;;;;;;;;;;5038832;28;20230;-73
2023/03/01 03:52:47;;;;;;;0.57;0.57;;;;;;;;;;5039452;28;20237;-74
2023/03/01 03:55:19;;;;;;;1.00;1.00;;;;;;;;;;5023494;28;20229;-73
2023/03/01 03:57:51;;;;;;;0.63;0.63;;;;;;;;;;5020184;28;20261;-73
2023/03/01 04:00:19;;;;;;;0.32;0.32;;;;;;;;;;5018680;28;20232;-74
2023/03/01 04:02:48;;;;;;;0.15;0.15;;;;;;;;;;5020280;28;20255;-74
2023/03/01 04:05:20;;;;;;;0.77;0.77;;;;;;;;;;5029080;28;20217;-73
2023/03/01 04:07:48;;;;;;;0.73;0.73;;;;;;;;;;5068183;27;20689;-71
2023/03/01 04:10:17;;;;;;;0.20;0.20;;;;;;;;;;5038798;28;20248;-74
2023/03/01 04:12:44;;;;;;;0.30;0.30;;;;;;;;;;5039558;28;20348;-73
2023/03/01 04:15:19;;;;;;;0.47;0.47;;;;;;;;;;5037574;28;20597;-73
2023/03/01 04:17:47;;;;;;;0.28;0.28;;;;;;;;;;5039928;28;20672;-73
2023/03/01 04:20:25;;;;;;;0.60;0.60;;;;;;;;;;5037283;28;20230;-72
2023/03/01 04:22:53;;;;;;;0.47;0.47;;;;;;;;;;5037735;28;20262;-73
2023/03/01 04:25:25;;;;;;;0.90;0.90;;;;;;;;;;5036638;28;20234;-73
2023/03/01 04:27:56;;;;;;;0.32;0.32;;;;;;;;;;5017560;28;20255;-73
2023/03/01 04:30:26;;;;;;;0.60;0.60;;;;;;;;;;5018273;28;20250;-73
2023/03/01 04:32:55;;;;;;;0.65;0.65;;;;;;;;;;5018298;28;20232;-73
2023/03/01 04:35:27;;;;;;;0.93;0.93;;;;;;;;;;5017890;28;20226;-73
2023/03/01 04:37:55;;;;;;;0.30;0.30;;;;;;;;;;5019200;28;20236;-72
2023/03/01 04:40:28;;;;;;;0.00;0.00;;;;;;;;;;5045185;28;20281;-72
2023/03/01 04:42:58;;;;;;;0.08;0.08;;;;;;;;;;5058651;28;20234;-74
2023/03/01 04:45:26;;;;;;;0.63;0.63;;;;;;;;;;5057911;28;20232;-72
2023/03/01 04:50:38;;;;;;;0.68;0.68;;;;;;;;;;5056690;28;20235;-73
2023/03/01 04:53:08;;;;;;;0.35;0.35;;;;;;;;;;5050765;28;20220;-74
2023/03/01 04:55:36;;;;;;;0.10;0.10;;;;;;;;;;5038761;28;20229;-73
2023/03/01 04:58:04;;;;;;;0.28;0.28;;;;;;;;;;5039293;28;20223;-73
2023/03/01 05:00:35;;;;;;;0.20;0.20;;;;;;;;;;5041249;28;20233;-73
2023/03/01 05:03:05;;;;;;;0.20;0.20;;;;;;;;;;5038469;28;20230;-73
2023/03/01 05:05:35;;;;;;;0.47;0.47;;;;;;;;;;5038665;28;20507;-72
2023/03/01 05:08:18;;;;;;;0.00;0.00;;;;;;;;;;5038742;28;20585;-73
2023/03/01 05:10:48;;;;;;;0.40;0.40;;;;;;;;;;5036667;28;20234;-72
2023/03/01 05:13:20;;;;;;;0.60;0.60;;;;;;;;;;5036449;28;20220;-73
2023/03/01 05:15:49;;;;;;;0.20;0.20;;;;;;;;;;5038544;28;20377;-72
2023/03/01 05:18:27;;;;;;;0.05;0.05;;;;;;;;;;5037823;28;20232;-73
2023/03/01 05:21:12;;;;;;;1.35;1.25;;;;;;;;;;5038491;28;20252;-72
2023/03/01 05:23:42;;;;;;;1.45;1.35;;;;;;;;;;5037856;28;20320;-73
2023/03/01 05:26:18;;;;;;;0.80;0.80;;;;;;;;;;5038082;28;20230;-73
2023/03/01 05:28:46;;;;;;;0.22;0.22;;;;;;;;;;5038235;28;20233;-73
2023/03/01 05:31:14;;;;;;;0.30;0.30;;;;;;;;;;5039365;28;20557;-73
2023/03/01 05:33:43;;;;;;;0.20;0.20;;;;;;;;;;5049529;28;20226;-74
2023/03/01 05:36:12;;;;;;;0.55;0.55;;;;;;;;;;5037458;28;20223;-74
2023/03/01 05:38:40;;;;;;;0.22;0.22;;;;;;;;;;5039188;28;20227;-73
2023/03/01 05:41:15;;;;;;;0.35;0.35;;;;;;;;;;5037666;28;20220;-72
2023/03/01 05:43:44;;;;;;;0.82;0.82;;;;;;;;;;5036473;28;20222;-72
2023/03/01 05:46:13;;;;;;;2.28;2.20;;;;;;;;;;5037970;28;20237;-72
2023/03/01 05:48:40;;;;;;;0.50;0.50;;;;;;;;;;5031528;28;21053;-72
2023/03/01 05:51:08;;;;;;;0.28;0.28;;;;;;;;;;5055373;28;20230;-73
2023/03/01 05:53:40;;;;;;;0.40;0.40;;;;;;;;;;5057649;28;20491;-73
2023/03/01 05:56:09;;;;;;;0.50;0.50;;;;;;;;;;5055825;28;20261;-72
2023/03/01 05:58:38;;;;;;;0.30;0.30;;;;;;;;;;5048303;28;20493;-73
2023/03/01 06:01:08;;;;;;;0.43;0.43;;;;;;;;;;5035983;28;20560;-73
2023/03/01 06:03:35;;;;;;;0.60;0.60;;;;;;;;;;5035987;28;20540;-73
2023/03/01 06:06:03;;;;;;;0.80;0.80;;;;;;;;;;5038375;28;21012;-72
2023/03/01 06:08:35;;;;;;;0.22;0.22;;;;;;;;;;5035768;28;20458;-73
2023/03/01 06:11:03;;;;;;;0.20;0.20;;;;;;;;;;5046303;27;20226;-73
2023/03/01 06:13:32;;;;;;;0.30;0.30;;;;;;;;;;5055827;28;20770;-72
2023/03/01 06:16:00;;;;;;;0.40;0.40;;;;;;;;;;5057327;28;20864;-74
2023/03/01 06:18:29;;;;;;;0.10;0.10;;;;;;;;;;5056272;28;20219;-72
2023/03/01 06:20:58;;;;;;;0.10;0.10;;;;;;;;;;5045791;28;20246;-73
2023/03/01 06:23:28;;;;;;;0.15;0.15;;;;;;;;;;5030521;28;20646;-72
2023/03/01 06:25:59;;;;;;;0.15;0.15;;;;;;;;;;5033521;28;20225;-74
2023/03/01 06:28:27;;;;;;;0.20;0.20;;;;;;;;;;5032869;28;20587;-74
2023/03/01 06:30:56;;;;;;;0.00;0.00;;;;;;;;;;5034259;28;20507;-72
2023/03/01 06:33:24;;;;;;;0.00;0.00;;;;;;;;;;5034335;28;20915;-73
2023/03/01 06:35:56;;;;;;;0.20;0.20;;;;;;;;;;5038421;28;20723;-73
2023/03/01 06:38:24;;;;;;;0.10;0.10;;;;;;;;;;5033805;28;20220;-72
2023/03/01 06:40:54;;;;;;;0.15;0.15;;;;;;;;;;5034787;28;20220;-74
2023/03/01 06:43:21;;;;;;;0.30;0.30;;;;;;;;;;5034244;28;20449;-73
2023/03/01 06:45:52;;;;;;;0.30;0.30;;;;;;;;;;5033883;28;20529;-73
2023/03/01 06:48:20;;;;;;;0.20;0.20;;;;;;;;;;5032157;28;20226;-72
2023/03/01 06:50:48;;;;;;;1.13;1.13;;;;;;;;;;5034301;28;20250;-72
2023/03/01 06:53:27;;;;;;;0.93;0.93;;;;;;;;;;5083147;28;20621;-73
2023/03/01 06:55:59;;;;;;;0.50;0.50;;;;;;;;;;5142004;28;20470;-73
2023/03/01 06:58:30;;;;;;;0.50;0.50;;;;;;;;;;5139003;28;20227;-73
2023/03/01 07:01:11;;;;;;;0.08;0.08;;;;;;;;;;5089330;28;20479;-72
2023/03/01 07:03:39;;;;;;;0.20;0.20;;;;;;;;;;5055506;28;20913;-73
2023/03/01 07:06:07;;;;;;;0.35;0.35;;;;;;;;;;5059211;28;20470;-73
2023/03/01 07:08:42;;;;;;;0.13;0.13;;;;;;;;;;5052978;28;20219;-71
2023/03/01 07:11:24;;;;;;;0.40;0.40;;;;;;;;;;5036743;28;20282;-74
2023/03/01 07:14:02;;;;;;;1.50;1.45;;;;;;;;;;5037421;28;20225;-74
2023/03/01 07:16:43;;;;;;;0.32;0.32;;;;;;;;;;5036928;28;20617;-73
2023/03/01 07:19:10;;;;;;;0.35;0.35;;;;;;;;;;5035023;28;20223;-71
2023/03/01 07:21:44;;;;;;;0.70;0.70;;;;;;;;;;5035955;28;20215;-72
2023/03/01 07:24:14;;;;;;;0.30;0.30;;;;;;;;;;5035931;28;20261;-72
2023/03/01 07:26:45;;;;;;;0.10;0.10;;;;;;;;;;5027320;28;20239;-74
2023/03/01 07:29:20;;;;;;;0.47;0.47;;;;;;;;;;5016426;28;20228;-73
2023/03/01 07:31:58;;;;;;;0.25;0.25;;;;;;;;;;5015485;28;20644;-74
2023/03/01 07:34:29;;;;;;;0.03;0.03;;;;;;;;;;5017510;28;20218;-73
2023/03/01 07:37:00;;;;;;;0.10;0.10;;;;;;;;;;5036153;28;20331;-73
2023/03/01 07:39:29;;;;;;;0.82;0.82;;;;;;;;;;5036655;28;20234;-73
2023/03/01 07:41:57;;;;;;;0.25;0.25;;;;;;;;;;5037199;28;20229;-72
2023/03/01 07:44:26;;;;;;;0.30;0.30;;;;;;;;;;5034357;28;20230;-72
2023/03/01 07:46:56;;;;;;;0.20;0.20;;;;;;;;;;5035628;28;20229;-71
2023/03/01 07:49:26;;;;;;;0.68;0.68;;;;;;;;;;5035239;28;20251;-71
2023/03/01 07:51:54;;;;;;;1.40;1.33;;;;;;;;;;5036474;28;20510;-72
2023/03/01 07:54:23;;;;;;;0.13;0.13;;;;;;;;;;5037575;28;20599;-73
2023/03/01 07:56:54;;;;;;;1.98;1.88;;;;;;;;;;5035710;28;20805;-73
2023/03/01 07:59:28;;;;;;;;;;;;;;;;;;5035011;28;20488;-72
2023/03/01 08:02:14;;;;;;;4.97;4.78;;;;;;;;;;5033468;28;20524;-72
2023/03/01 08:04:44;;;;;;;0.65;0.65;;;;;;;;;;5034084;28;20224;-72
2023/03/01 08:07:25;;;;;;;0.57;0.57;;;;;;;;;;5032790;28;20233;-72
2023/03/01 08:10:09;;;;;;;0.40;0.40;;;;;;;;;;5032710;28;20254;-72
2023/03/01 08:12:58;;;;;;;0.90;0.90;;;;;;;;;;5033028;28;20239;-71
2023/03/01 08:15:26;;;;;;;1.27;1.27;;;;;;;;;;5028530;28;20225;-73
2023/03/01 08:17:54;;;;;;;1.60;1.60;;;;;;;;;;5018941;28;20230;-73
2023/03/01 08:20:29;;;;;;;0.65;0.65;;;;;;;;;;5018605;28;20516;-72
2023/03/01 08:23:00;;;;;;;2.22;2.13;;;;;;;;;;5036173;28;20222;-73
2023/03/01 08:25:55;;;;;;;0.63;0.63;;;;;;;;;;5027899;28;20593;-72
2023/03/01 08:28:42;;;;;;;1.27;1.27;;;;;;;;;;5037864;28;20423;-73
2023/03/01 08:31:16;;;;;;;1.05;1.05;;;;;;;;;;5032878;28;20240;-72
2023/03/01 08:33:50;;;;;;;1.55;1.50;;;;;;;;;;5033471;28;20520;-72
2023/03/01 08:36:18;;;;;;;1.10;1.10;;;;;;;;;;5052002;28;20224;-72
2023/03/01 08:38:47;;;;;;;2.10;2.00;;;;;;;;;;5039780;28;20254;-72
2023/03/01 08:47:14;;;;;;;1.75;1.65;;;;;;;;;;5018301;28;20232;-73
2023/03/01 08:50:04;;;;;;;2.03;1.92;;;;;;;;;;5020757;28;20243;-73
2023/03/01 08:55:30;;;;;;;0.80;0.80;;;;;;;;;;4977959;28;20229;-71
2023/03/01 08:58:00;;;;;;;2.92;2.75;;;;;;;;;;5010715;28;20219;-73
2023/03/01 09:00:47;;;;;;;1.13;1.13;;;;;;;;;;5024577;27;20372;-71
2023/03/01 09:03:49;;;;;;;2.10;2.00;;;;;;;;;;5040908;27;20272;-73
2023/03/01 09:06:29;;;;;;;2.15;2.03;;;;;;;;;;5018242;28;20231;-72
2023/03/01 09:09:06;;;;;;;2.30;2.20;;;;;;;;;;5024371;28;20262;-73
2023/03/01 09:11:40;;;;;;;1.15;1.15;;;;;;;;;;5028276;28;20425;-72
2023/03/01 09:14:07;;;;;;;2.58;2.45;;;;;;;;;;5038715;28;20230;-72
2023/03/01 09:19:32;;;;;;;1.83;1.73;;;;;;;;;;5023706;28;20314;-73
2023/03/01 09:22:12;;;;;;;2.05;1.95;;;;;;;;;;5030915;28;20224;-73
2023/03/01 09:24:49;;;;;;;1.33;1.23;;;;;;;;;;5033393;27;20225;-73
2023/03/01 09:27:31;;;;;;;1.75;1.65;;;;;;;;;;5036657;27;20549;-72
2023/03/01 09:30:24;;;;;;;1.77;1.67;;;;;;;;;;5026532;28;20242;-73
2023/03/01 09:36:17;;;;;;;0.93;0.93;;;;;;;;;;5036527;28;20200;-72
2023/03/01 09:38:58;;;;;;;1.92;1.83;;;;;;;;;;5037165;28;20224;-72
2023/03/01 09:41:38;;;;;;;1.70;1.60;;;;;;;;;;5032323;27;20271;-73
2023/03/01 09:44:16;;;;;;;0.55;0.55;;;;;;;;;;5031979;28;20225;-73
2023/03/01 09:49:31;;;;;;;1.48;1.38;;;;;;;;;;5109437;27;20227;-72
2023/03/01 09:52:04;;;;;;;0.85;0.85;;;;;;;;;;5034508;28;20266;-72
2023/03/01 09:54:33;;;;;;;0.95;0.95;;;;;;;;;;5035360;28;20246;-72
2023/03/01 09:57:21;;;;;;;1.00;1.00;;;;;;;;;;5036370;28;20230;-73
2023/03/01 10:00:05;;;;;;;1.00;0.98;;;;;;;;;;5036152;28;20331;-73
2023/03/01 10:02:49;;;;;;;0.68;0.68;;;;;;;;;;5036621;28;20698;-74
2023/03/01 10:05:57;;;;;;;0.77;0.77;;;;;;;;;;5030880;28;20562;-73
2023/03/01 10:08:36;;;;;;;1.75;1.65;;;;;;;;;;5034066;28;20515;-73
2023/03/01 10:11:04;;;;;;;0.93;0.93;;;;;;;;;;5035925;28;20415;-73
2023/03/01 10:13:48;;;;;;;2.67;2.45;;;;;;;;;;5030518;28;20497;-73
2023/03/01 10:16:26;;;;;;;1.30;1.20;;;;;;;;;;5017430;28;20243;-73
2023/03/01 10:19:01;;;;;;;3.97;3.72;;;;;;;;;;5014753;28;20514;-74
2023/03/01 10:21:31;;;;;;;1.90;1.80;;;;;;;;;;5018032;28;20216;-73
2023/03/01 10:24:11;;;;;;;1.15;1.05;;;;;;;;;;5023211;28;20228;-73
2023/03/01 10:26:50;;;;;;;2.90;2.70;;;;;;;;;;5023356;28;20224;-73
2023/03/01 10:29:40;;;;;;;2.33;2.17;;;;;;;;;;5027533;28;20707;-74
2023/03/01 10:32:25;;;;;;;2.05;1.95;;;;;;;;;;5038159;28;20692;-72
2023/03/01 10:34:53;;;;;;;2.08;1.98;;;;;;;;;;5036775;28;20304;-74
2023/03/01 10:37:24;;;;;;;1.95;1.80;;;;;;;;;;5028279;28;20227;-74
2023/03/01 10:40:13;;;;;;;2.20;2.10;;;;;;;;;;5021695;28;20845;-72
2023/03/01 10:42:41;;;;;;;1.85;1.75;;;;;;;;;;5035406;28;20518;-74
2023/03/01 10:45:20;;;;;;;2.42;2.30;;;;;;;;;;5074887;27;20231;-73
2023/03/01 10:47:49;;;;;;;0.95;0.95;;;;;;;;;;5139693;27;20270;-74
2023/03/01 10:50:31;;;;;;;1.45;1.35;;;;;;;;;;5063844;28;20207;-74
2023/03/01 10:53:03;;;;;;;2.20;2.05;;;;;;;;;;5014843;28;20572;-74
2023/03/01 10:55:36;;;;;;;1.88;1.77;;;;;;;;;;5015436;28;20742;-73
2023/03/01 10:58:31;;;;;;;1.33;1.27;;;;;;;;;;5014542;28;20220;-74
2023/03/01 11:01:25;;;;;;;1.63;1.52;;;;;;;;;;5022338;28;20228;-73
2023/03/01 11:04:17;;;;;;;1.85;1.75;;;;;;;;;;5042214;28;20218;-72
2023/03/01 11:07:05;;;;;;;2.22;2.08;;;;;;;;;;5054810;28;20615;-73
2023/03/01 11:09:42;;;;;;;1.42;1.33;;;;;;;;;;5047875;28;20225;-72
2023/03/01 11:12:17;;;;;;;2.58;2.38;;;;;;;;;;5034215;28;20274;-73
2023/03/01 11:14:56;;;;;;;2.83;2.63;;;;;;;;;;5035281;28;20225;-73
2023/03/01 11:17:44;;;;;;;0.85;0.85;;;;;;;;;;5034172;28;20746;-74
2023/03/01 11:20:20;;;;;;;2.55;2.35;;;;;;;;;;5044362;28;20223;-72
2023/03/01 11:23:02;;;;;;;1.30;1.20;;;;;;;;;;5023966;28;20779;-74
2023/03/01 11:25:35;;;;;;;2.15;2.05;;;;;;;;;;5018391;28;20613;-74
2023/03/01 11:28:06;;;;;;;4.30;3.92;;;;;;;;;;5014873;28;20234;-72
2023/03/01 11:30:37;;;;;;;3.17;2.97;;;;;;;;;;5014272;28;20275;-73
2023/03/01 11:33:21;;;;;;;2.30;2.17;;;;;;;;;;5027665;28;20721;-74
2023/03/01 11:35:56;;;;;;;1.23;1.15;;;;;;;;;;5033924;28;20220;-73
2023/03/01 11:38:27;;;;;;;1.63;1.52;;;;;;;;;;5033842;28;20219;-73
2023/03/01 11:40:58;;;;;;;2.17;2.08;;;;;;;;;;5033392;28;20215;-73
2023/03/01 11:43:34;;;;;;;1.73;1.63;;;;;;;;;;5030986;28;20232;-74
2023/03/01 11:46:34;;;;;;;2.83;2.63;;;;;;;;;;5032739;28;20219;-73
2023/03/01 11:49:09;;;;;;;1.58;1.48;;;;;;;;;;5033831;28;20215;-75
2023/03/01 11:51:44;;;;;;;1.33;1.25;;;;;;;;;;5036286;28;20232;-74
2023/03/01 11:54:18;;;;;;;3.22;3.03;;;;;;;;;;5035748;28;20673;-74
2023/03/01 11:56:49;;;;;;;0.68;0.68;;;;;;;;;;5036453;28;20229;-73
2023/03/01 11:59:30;;;;;;;2.05;1.95;;;;;;;;;;5036595;28;20685;-75
2023/03/01 12:02:16;;;;;;;2.70;2.50;;;;;;;;;;5108925;27;20302;-75
2023/03/01 12:05:09;;;;;;;4.15;3.85;;;;;;;;;;5142075;27;20219;-75
2023/03/01 12:07:51;;;;;;;3.03;2.83;;;;;;;;;;5124460;27;20210;-74
2023/03/01 12:10:26;;;;;;;1.50;1.42;;;;;;;;;;5018224;28;20209;-74
2023/03/01 12:13:04;;;;;;;2.97;2.78;;;;;;;;;;5018862;28;20215;-73
2023/03/01 12:16:04;;;;;;;0.93;0.90;;;;;;;;;;5029116;28;20222;-73
2023/03/01 12:18:46;;;;;;;1.20;1.20;;;;;;;;;;5033519;28;20233;-74
2023/03/01 12:21:24;;;;;;;2.33;2.22;;;;;;;;;;5029750;28;20207;-72
2023/03/01 12:27:01;;;;;;;2.47;2.30;;;;;;;;;;5034195;28;20219;-73
2023/03/01 12:29:35;;;;;;;1.02;1.02;;;;;;;;;;5035027;28;20285;-73
2023/03/01 12:32:17;;;;;;;1.98;1.88;;;;;;;;;;5033394;28;20285;-72
2023/03/01 12:35:07;;;;;;;1.15;1.08;;;;;;;;;;5031479;28;20225;-73
2023/03/01 12:37:41;;;;;;;0.70;0.70;;;;;;;;;;5025916;27;20314;-72
2023/03/01 12:40:39;;;;;;;0.70;0.70;;;;;;;;;;5038312;28;20241;-73
2023/03/01 12:43:19;;;;;;;0.88;0.88;;;;;;;;;;5084684;27;20527;-74
2023/03/01 12:46:11;;;;;;;1.58;1.48;;;;;;;;;;5037588;27;20335;-72
2023/03/01 12:48:53;;;;;;;1.08;1.08;;;;;;;;;;5034411;28;20296;-72
2023/03/01 12:51:25;;;;;;;2.15;2.05;;;;;;;;;;5035163;28;20632;-74
2023/03/01 12:54:03;;;;;;;1.55;1.45;;;;;;;;;;5034481;28;20326;-72
2023/03/01 12:56:52;;;;;;;1.10;1.08;;;;;;;;;;5036351;28;20229;-73
2023/03/01 12:59:37;;;;;;;2.55;2.35;;;;;;;;;;5036866;28;20276;-72
2023/03/01 13:05:36;;;;;;;2.55;2.35;;;;;;;;;;5027978;28;20221;-73
2023/03/01 13:08:32;;;;;;;2.05;1.95;;;;;;;;;;5016174;28;20224;-73
2023/03/01 13:11:05;;;;;;;3.10;2.90;;;;;;;;;;5025986;28;20231;-72
2023/03/01 13:13:39;;;;;;;1.88;1.77;;;;;;;;;;5021415;28;20211;-72
2023/03/01 13:16:34;;;;;;;2.28;2.13;;;;;;;;;;5021675;28;20239;-72
2023/03/01 13:19:10;;;;;;;2.47;2.30;;;;;;;;;;5036761;28;20266;-71
2023/03/01 13:21:38;;;;;;;2.95;2.75;;;;;;;;;;5031226;28;20222;-72
2023/03/01 13:24:39;;;;;;;1.33;1.30;;;;;;;;;;5030782;28;20474;-73
2023/03/01 13:27:25;;;;;;;2.88;2.67;;;;;;;;;;5024198;28;20681;-71
2023/03/01 13:32:59;;;;;;;1.88;1.77;;;;;;;;;;5006180;28;20506;-73
2023/03/01 13:35:50;;;;;;;3.92;3.58;;;;;;;;;;5022361;28;20249;-73
2023/03/01 13:38:42;;;;;;;0.80;0.80;;;;;;;;;;5023868;28;20691;-72
2023/03/01 13:44:13;;;;;;;1.95;1.83;;;;;;;;;;5024017;28;20238;-72
2023/03/01 13:46:58;;;;;;;1.05;1.05;;;;;;;;;;5022334;28;20216;-72
2023/03/01 13:49:35;;;;;;;2.28;2.08;;;;;;;;;;5024724;28;20270;-72
2023/03/01 13:55:30;;;;;;;1.98;1.88;;;;;;;;;;5019084;28;20633;-72
2023/03/01 13:58:06;;;;;;;3.75;3.53;;;;;;;;;;5024973;28;20228;-72
2023/03/01 14:00:42;;;;;;;2.67;2.50;;;;;;;;;;5020252;28;20330;-72
2023/03/01 14:03:15;;;;;;;1.77;1.67;;;;;;;;;;5045621;28;20292;-72
2023/03/01 14:06:07;;;;;;;1.40;1.30;;;;;;;;;;5047894;27;20754;-71
2023/03/01 14:08:45;;;;;;;2.80;2.60;;;;;;;;;;5012786;28;20222;-72
2023/03/01 14:11:49;;;;;;;2.92;2.72;;;;;;;;;;5020402;28;20244;-73
2023/03/01 14:14:44;;;;;;;2.05;1.95;;;;;;;;;;5039509;27;20257;-73
2023/03/01 14:17:43;;;;;;;1.60;1.50;;;;;;;;;;5026808;28;20235;-73
2023/03/01 14:20:19;;;;;;;0.65;0.65;;;;;;;;;;5024995;28;20216;-74
2023/03/01 14:22:59;;;;;;;0.55;0.55;;;;;;;;;;5022095;28;20202;-74
2023/03/01 14:25:30;;;;;;;4.60;4.28;;;;;;;;;;5026920;28;20215;-74
2023/03/01 14:28:41;;;;;;;0.85;0.85;;;;;;;;;;5023358;28;20212;-72
2023/03/01 14:31:49;;;;;;;2.60;2.40;;;;;;;;;;5023281;28;20251;-73
2023/03/01 14:34:50;;;;;;;3.67;3.45;;;;;;;;;;5025765;28;20236;-75
2023/03/01 14:49:32;;;;;;;2.88;2.67;;;;;;;;;;5007435;28;20264;-74
2023/03/01 14:52:11;;;;;;;2.10;1.92;;;;;;;;;;5015513;28;20231;-73
2023/03/01 14:54:42;;;;;;;3.45;3.15;;;;;;;;;;5099494;28;20216;-73
2023/03/01 14:57:16;;;;;;;2.15;2.05;;;;;;;;;;5010702;28;20293;-72
2023/03/01 14:59:54;;;;;;;1.40;1.30;;;;;;;;;;5008896;28;20289;-74
2023/03/01 15:05:17;;;;;;;3.67;3.47;;;;;;;;;;5009303;28;20221;-73
2023/03/01 15:07:48;;;;;;;1.10;1.10;;;;;;;;;;5005456;28;20221;-73
2023/03/01 15:10:31;;;;;;;1.63;1.55;;;;;;;;;;5001599;28;20212;-72
2023/03/01 15:13:12;;;;;;;3.97;3.67;;;;;;;;;;5003698;28;20314;-73
2023/03/01 15:15:46;;;;;;;2.63;2.42;;;;;;;;;;5006405;28;20220;-73
2023/03/01 15:18:25;;;;;;;1.80;1.70;;;;;;;;;;5017432;28;20286;-73
2023/03/01 15:20:56;;;;;;;2.15;2.05;;;;;;;;;;5024606;28;20463;-71
2023/03/01 15:23:39;;;;;;;2.95;2.75;;;;;;;;;;5031465;28;20216;-72
2023/03/01 15:26:30;;;;;;;1.48;1.38;;;;;;;;;;5026271;28;20235;-73
2023/03/01 15:29:02;;;;;;;2.92;2.72;;;;;;;;;;5008010;28;20216;-72
2023/03/01 15:34:37;;;;;;;1.58;1.48;;;;;;;;;;5007035;28;20218;-72
2023/03/01 15:37:47;;;;;;;2.55;2.40;;;;;;;;;;5010243;28;20276;-73
2023/03/01 15:43:38;;;;;;;1.95;1.85;;;;;;;;;;5012492;28;20215;-72
2023/03/01 15:49:19;;;;;;;;;;;;;;;;;;;;;
2023/03/01 15:52:03;;;;;;;2.08;1.98;;;;;;;;;;5015832;28;20292;-73
2023/03/01 15:54:33;;;;;;;3.25;3.05;;;;;;;;;;5018545;28;20569;-71
2023/03/01 15:57:17;;;;;;;3.60;3.40;;;;;;;;;;5007913;28;20251;-73
2023/03/01 15:59:50;;;;;;;5.13;4.75;;;;;;;;;;5006962;28;20275;-72
2023/03/01 16:02:22;;;;;;;1.98;1.88;;;;;;;;;;5010248;28;20213;-73
2023/03/01 16:04:50;;;;;;;2.33;2.22;;;;;;;;;;5008937;28;20224;-72
2023/03/01 16:07:20;;;;;;;1.95;1.85;;;;;;;;;;5012075;28;20196;-73
2023/03/01 16:09:53;;;;;;;1.75;1.65;;;;;;;;;;5010897;28;20221;-72
2023/03/01 16:12:27;;;;;;;1.88;1.77;;;;;;;;;;5013258;28;20251;-72
2023/03/01 16:14:54;;;;;;;1.60;1.50;;;;;;;;;;5000892;28;20322;-72
2023/03/01 16:17:23;;;;;;;1.30;1.25;;;;;;;;;;5018298;28;20220;-72
2023/03/01 16:19:54;;;;;;;1.30;1.25;;;;;;;;;;5018552;28;20238;-72
2023/03/01 16:22:31;;;;;;;1.17;1.17;;;;;;;;;;5009172;28;20673;-72
2023/03/01 16:25:03;;;;;;;0.95;0.95;;;;;;;;;;5001566;28;20216;-72
2023/03/01 16:27:55;;;;;;;1.50;1.40;;;;;;;;;;5019063;28;20220;-72
2023/03/01 16:30:39;;;;;;;1.42;1.33;;;;;;;;;;5021117;28;20235;-72
2023/03/01 16:33:21;;;;;;;2.13;2.03;;;;;;;;;;5010329;28;20256;-72
2023/03/01 16:35:55;;;;;;;2.53;2.40;;;;;;;;;;4998012;28;20225;-73